CBK6 weather

Quesnel Lake Airport
Quesnel Lake, British Columbia, Canada

Public forecast

Using degrees Celsius for public forecast. Weather courtesy of forecast.io.

METAR (pilot weather report)

Closest report is Williams Lake Airport, 42.0 nm (77.8 km) WSW. Retrieved 2019/08/19 12:00 UTC (59 minutes ago):

CYWL 191200Z VRB02KT 15SM FEW120 SCT220 09/04 A2987 RMK AC2CI2 SLP120 DENSITY ALT 3200FT

TAF (pilot weather forecast)

Closest forecast is Williams Lake Airport, 42.0 nm (77.8 km) WSW. Retrieved 2019/08/19 13:42 UTC (0 seconds ago):

TAF CYWL 191238Z 1913/2001 VRB03KT P6SM FEW120 BECMG 1920/1922 12005KT RMK NXT FCST BY 191900Z